Time;durP1;ratioP1;P1;durP2;ratioP2;P2;SDS_P1;SDS_P2;PMS_P1;PMS_P2;Temp;Humidity;BMP_temperature;BMP_pressure;BME280_temperature;BME280_humidity;BME280_pressure;Samples;Min_cycle;Max_cycle;Signal;HPM_P1;HPM_P2
2021/08/24 00:01:41;;;;;;;7.38;5.53;;;;;;;21.89;35.63;93931.63;4943539;28;20113;-75
2021/08/24 00:04:07;;;;;;;8.27;4.82;;;;;;;21.78;35.11;93925.38;4953424;28;20046;-77
2021/08/24 00:06:33;;;;;;;5.53;5.03;;;;;;;21.64;34.59;93914.50;4944208;28;20046;-75
2021/08/24 00:08:58;;;;;;;7.00;5.13;;;;;;;21.64;34.79;93920.69;4943183;28;20083;-75
2021/08/24 00:11:24;;;;;;;5.60;5.10;;;;;;;21.63;34.92;93919.16;4943091;28;20169;-75
2021/08/24 00:13:50;;;;;;;6.70;4.63;;;;;;;21.52;36.44;93922.91;4948209;28;20517;-74
2021/08/24 00:16:17;;;;;;;5.75;4.72;;;;;;;21.39;35.85;93896.19;4946143;28;20151;-75
2021/08/24 00:18:44;;;;;;;7.03;5.00;;;;;;;21.09;36.70;93902.97;4943954;28;20039;-76
2021/08/24 00:21:09;;;;;;;7.60;4.80;;;;;;;21.44;36.56;93916.72;4941638;28;20086;-75
2021/08/24 00:23:35;;;;;;;5.88;3.90;;;;;;;21.57;36.56;93914.47;4943986;28;20047;-77
2021/08/24 00:26:02;;;;;;;4.80;4.28;;;;;;;21.54;36.73;93913.28;4962302;28;20791;-75
2021/08/24 00:28:28;;;;;;;5.20;3.97;;;;;;;21.57;36.68;93904.41;4938165;28;20332;-76
2021/08/24 00:30:54;;;;;;;6.13;4.13;;;;;;;21.58;37.45;93916.03;4926136;28;20035;-75
2021/08/24 00:33:21;;;;;;;5.47;4.30;;;;;;;21.51;37.66;93905.16;4938088;28;20452;-75
2021/08/24 00:35:47;;;;;;;4.47;4.05;;;;;;;21.59;38.08;93902.13;4945356;28;20071;-75
2021/08/24 00:38:15;;;;;;;4.85;4.32;;;;;;;21.31;37.84;93908.16;4944719;28;20109;-75
2021/08/24 00:40:41;;;;;;;6.28;4.45;;;;;;;21.17;39.25;93897.22;4943914;28;20038;-75
2021/08/24 00:43:09;;;;;;;5.18;4.07;;;;;;;21.32;38.96;93904.28;4943077;28;20412;-75
2021/08/24 00:45:36;;;;;;;8.15;3.80;;;;;;;21.27;39.14;93904.63;4945403;28;20084;-76
2021/08/24 00:48:02;;;;;;;8.10;3.53;;;;;;;21.30;38.60;93900.41;4942467;28;20050;-76
2021/08/24 00:50:31;;;;;;;6.40;4.40;;;;;;;21.03;36.85;93870.09;4946932;28;20738;-76
2021/08/24 00:53:12;;;;;;;10.65;5.95;;;;;;;21.20;36.94;93907.31;4943926;28;20477;-76
2021/08/24 00:55:44;;;;;;;6.25;4.72;;;;;;;21.00;37.87;93903.31;4944607;28;20136;-75
2021/08/24 00:58:12;;;;;;;5.50;4.45;;;;;;;21.00;38.91;93906.03;4943503;28;20383;-75
2021/08/24 01:00:43;;;;;;;8.05;4.30;;;;;;;21.09;39.35;93906.47;4943131;28;20104;-76
2021/08/24 01:03:13;;;;;;;6.53;4.97;;;;;;;21.05;38.21;93888.66;4944766;28;20131;-75
2021/08/24 01:05:41;;;;;;;6.90;4.35;;;;;;;21.10;38.39;93899.91;4945939;28;20049;-74
2021/08/24 01:08:28;;;;;;;6.28;5.00;;;;;;;20.98;38.06;93894.78;4943384;28;23600;-75
2021/08/24 01:11:18;;;;;;;6.18;4.88;;;;;;;21.11;38.22;93892.56;4959923;28;20073;-75
2021/08/24 01:14:00;;;;;;;5.88;4.38;;;;;;;20.88;38.49;93895.50;4945447;28;20057;-75
2021/08/24 01:16:33;;;;;;;6.78;4.90;;;;;;;20.91;38.83;93894.75;4937932;28;20046;-75
2021/08/24 01:19:28;;;;;;;5.40;4.90;;;;;;;20.85;39.25;93897.00;4949175;28;21801;-75
2021/08/24 01:22:02;;;;;;;8.05;5.30;;;;;;;20.58;39.80;93896.41;4906329;28;20043;-76
2021/08/24 01:24:48;;;;;;;5.65;5.00;;;;;;;20.60;38.96;93888.72;4959867;28;20100;-75
2021/08/24 01:27:27;;;;;;;5.57;4.90;;;;;;;20.87;38.61;93897.44;4943019;28;20379;-75
2021/08/24 01:30:16;;;;;;;7.30;4.65;;;;;;;20.86;38.16;93898.56;4945173;28;20049;-77
2021/08/24 01:33:20;;;;;;;5.97;5.38;;;;;;;20.56;39.14;93903.34;4955278;28;20069;-77
2021/08/24 01:36:08;;;;;;;6.20;5.43;;;;;;;20.40;38.66;93902.81;4931966;28;20133;-75
2021/08/24 01:38:44;;;;;;;5.00;4.50;;;;;;;20.41;39.18;93904.38;4957224;28;20102;-76
2021/08/24 01:41:31;;;;;;;6.30;4.88;;;;;;;20.49;38.69;93905.97;4946405;28;21325;-76
2021/08/24 01:44:07;;;;;;;5.55;5.05;;;;;;;20.23;38.74;93877.22;4958918;28;20026;-76
2021/08/24 01:46:52;;;;;;;7.10;4.78;;;;;;;20.37;39.03;93904.34;4928785;28;20501;-76
2021/08/24 01:49:21;;;;;;;7.20;5.32;;;;;;;20.28;38.84;93895.78;4923099;28;20163;-76
2021/08/24 01:52:02;;;;;;;7.95;5.90;;;;;;;20.14;40.04;93909.13;4937954;28;20074;-75
2021/08/24 01:54:35;;;;;;;5.10;4.38;;;;;;;20.09;39.59;93904.81;4927271;28;20520;-74
2021/08/24 01:57:02;;;;;;;10.13;5.65;;;;;;;19.94;40.13;93895.03;4948241;28;21190;-75
2021/08/24 01:59:40;;;;;;;8.68;5.18;;;;;;;20.02;39.14;93909.38;4940669;28;20419;-76
2021/08/24 02:02:17;;;;;;;6.97;4.95;;;;;;;20.29;39.12;93902.72;4941419;28;20034;-76
2021/08/24 02:04:55;;;;;;;5.30;4.75;;;;;;;20.07;39.51;93903.63;4944469;28;20565;-75
2021/08/24 02:07:22;;;;;;;5.53;4.90;;;;;;;19.99;40.26;93888.53;4941837;28;20881;-75
2021/08/24 02:09:52;;;;;;;10.18;5.05;;;;;;;20.07;40.32;93907.13;4943638;28;20078;-74
2021/08/24 02:12:21;;;;;;;6.18;5.57;;;;;;;20.05;40.47;93904.00;4942793;28;20035;-75
2021/08/24 02:14:47;;;;;;;8.07;5.07;;;;;;;19.96;40.34;93900.03;4941771;28;20541;-76
2021/08/24 02:17:16;;;;;;;7.00;4.00;;;;;;;19.93;40.87;93895.41;4943270;28;20046;-76
2021/08/24 02:23:08;;;;;;;7.53;5.55;;;;;;;19.72;41.72;93896.72;4960897;28;20057;-75
2021/08/24 02:25:41;;;;;;;5.57;4.97;;;;;;;19.47;42.20;93903.72;4947097;28;20543;-74
2021/08/24 02:28:09;;;;;;;8.93;5.70;;;;;;;19.50;42.31;93900.31;4940865;28;20045;-74
2021/08/24 02:30:40;;;;;;;5.82;4.97;;;;;;;19.50;42.74;93896.84;4945363;28;20106;-75
2021/08/24 02:33:06;;;;;;;9.00;5.82;;;;;;;19.48;43.35;93896.41;4942701;28;20580;-75
2021/08/24 02:35:39;;;;;;;6.47;5.70;;;;;;;19.42;43.43;93881.66;4943977;28;20335;-75
2021/08/24 02:38:13;;;;;;;7.60;5.60;;;;;;;19.48;43.10;93894.50;4942060;28;20069;-76
2021/08/24 02:40:46;;;;;;;6.95;5.45;;;;;;;19.33;43.66;93873.88;4939607;28;20054;-75
2021/08/24 02:43:20;;;;;;;7.20;5.28;;;;;;;19.39;43.99;93893.97;4938000;28;20129;-75
2021/08/24 02:45:53;;;;;;;7.05;5.68;;;;;;;19.26;43.72;93892.66;4943425;28;20050;-74
2021/08/24 02:48:21;;;;;;;6.72;5.20;;;;;;;19.16;44.02;93874.44;4947167;28;20042;-76
2021/08/24 02:50:47;;;;;;;7.63;5.85;;;;;;;19.17;44.04;93889.44;4945486;28;20073;-75
2021/08/24 02:53:14;;;;;;;7.13;5.38;;;;;;;19.10;44.52;93875.88;4945574;28;20158;-76
2021/08/24 02:55:39;;;;;;;7.53;5.32;;;;;;;19.06;44.48;93864.28;4967129;28;20037;-74
2021/08/24 02:58:05;;;;;;;8.05;5.25;;;;;;;19.18;44.29;93883.69;4969927;28;20030;-74
2021/08/24 03:00:30;;;;;;;9.50;5.40;;;;;;;19.02;45.11;93885.03;4964136;28;20584;-74
2021/08/24 03:02:56;;;;;;;9.65;6.22;;;;;;;19.05;45.45;93895.06;4973307;28;20058;-75
2021/08/24 03:05:21;;;;;;;7.03;5.43;;;;;;;19.14;44.87;93890.97;4976146;28;20270;-75
2021/08/24 03:07:47;;;;;;;7.75;5.90;;;;;;;19.04;45.34;93894.28;4956602;28;20038;-75
2021/08/24 03:10:22;;;;;;;8.57;6.07;;;;;;;18.81;45.35;93859.31;4974221;28;20433;-74
2021/08/24 03:13:33;;;;;;;7.13;6.00;;;;;;;19.21;45.58;93896.44;4978472;28;20038;-74
2021/08/24 03:16:07;;;;;;;7.78;6.10;;;;;;;19.19;45.14;93889.84;4974323;28;20371;-74
2021/08/24 03:18:42;;;;;;;9.52;5.72;;;;;;;19.12;45.85;93887.06;4994554;28;20058;-74
2021/08/24 03:21:13;;;;;;;7.38;6.07;;;;;;;19.09;45.93;93891.28;4965770;28;20038;-74
2021/08/24 03:23:42;;;;;;;9.18;6.05;;;;;;;19.00;46.22;93887.28;4956683;28;20144;-74
2021/08/24 03:26:09;;;;;;;9.52;5.72;;;;;;;18.99;45.76;93885.72;4967583;28;20781;-74
2021/08/24 03:28:37;;;;;;;10.95;7.07;;;;;;;19.11;45.35;93882.84;4975631;28;20472;-75
2021/08/24 03:31:03;;;;;;;8.05;6.47;;;;;;;19.14;45.18;93877.47;4973899;28;20039;-75
2021/08/24 03:33:28;;;;;;;6.75;6.05;;;;;;;19.04;45.76;93877.34;4974164;28;20069;-74
2021/08/24 03:35:54;;;;;;;6.20;5.47;;;;;;;19.02;46.01;93887.72;4977524;28;20129;-74
2021/08/24 03:38:20;;;;;;;7.30;6.13;;;;;;;19.03;46.07;93883.84;4969128;28;20047;-75
2021/08/24 03:40:45;;;;;;;9.30;5.97;;;;;;;19.07;46.02;93901.63;4975461;28;20023;-75
2021/08/24 03:43:11;;;;;;;8.30;6.20;;;;;;;18.93;46.40;93892.56;4977295;28;20042;-75
2021/08/24 03:45:37;;;;;;;6.43;5.53;;;;;;;18.88;46.22;93878.28;4970242;28;20458;-75
2021/08/24 03:48:02;;;;;;;8.65;6.05;;;;;;;19.07;45.76;93890.84;4976681;28;20045;-77
2021/08/24 03:50:28;;;;;;;9.82;6.10;;;;;;;18.95;46.11;93890.31;4972811;28;20355;-74
2021/08/24 03:52:53;;;;;;;7.20;6.03;;;;;;;18.92;46.12;93891.03;4968440;28;20034;-75
2021/08/24 03:55:19;;;;;;;7.32;6.30;;;;;;;18.71;46.19;93870.72;4975912;28;20045;-74
2021/08/24 03:57:45;;;;;;;8.13;7.03;;;;;;;18.94;45.77;93894.91;4973278;28;20596;-75
2021/08/24 04:00:11;;;;;;;14.48;7.43;;;;;;;18.85;46.26;93881.69;4972933;28;20850;-74
2021/08/24 04:02:37;;;;;;;14.68;7.55;;;;;;;18.87;46.31;93894.81;4973942;28;20045;-76
2021/08/24 04:05:03;;;;;;;8.07;5.82;;;;;;;18.88;46.35;93891.75;4970850;28;20053;-74
2021/08/24 04:07:29;;;;;;;9.95;6.32;;;;;;;18.98;46.04;93897.66;4980387;28;20461;-76
2021/08/24 04:09:56;;;;;;;10.98;6.70;;;;;;;18.98;45.99;93894.94;4965873;28;20149;-76
2021/08/24 04:12:22;;;;;;;12.80;6.43;;;;;;;19.04;45.60;93894.28;4976197;28;20038;-74
2021/08/24 04:14:48;;;;;;;10.68;6.80;;;;;;;19.06;45.70;93896.63;4972654;28;20065;-74
2021/08/24 04:17:14;;;;;;;10.23;6.00;;;;;;;19.07;46.20;93903.53;4971111;28;20042;-75
2021/08/24 04:19:40;;;;;;;13.75;6.20;;;;;;;19.05;46.32;93900.47;4972204;28;20093;-75
2021/08/24 04:22:10;;;;;;;6.55;5.57;;;;;;;18.96;46.34;93881.09;4975776;28;20432;-74
2021/08/24 04:24:36;;;;;;;12.30;7.85;;;;;;;19.09;46.06;93895.88;4974833;28;20580;-74
2021/08/24 04:27:01;;;;;;;7.85;6.03;;;;;;;19.35;44.86;93895.84;4969697;28;20050;-74
2021/08/24 04:29:27;;;;;;;8.75;6.03;;;;;;;19.59;44.43;93905.44;4975219;28;20054;-75
2021/08/24 04:31:52;;;;;;;8.73;7.10;;;;;;;19.63;44.47;93909.72;4969727;28;20193;-76
2021/08/24 04:34:18;;;;;;;8.55;6.28;;;;;;;19.59;44.42;93903.50;4989662;28;20217;-74
2021/08/24 04:36:43;;;;;;;8.27;5.88;;;;;;;19.57;44.70;93899.59;4973699;28;20054;-74
2021/08/24 04:39:09;;;;;;;12.80;6.25;;;;;;;19.70;44.57;93904.38;4974384;28;20030;-74
2021/08/24 04:41:34;;;;;;;10.07;6.18;;;;;;;19.87;44.43;93921.16;4975630;28;20799;-75
2021/08/24 04:43:59;;;;;;;8.95;6.00;;;;;;;19.92;44.57;93918.91;4970863;28;20113;-74
2021/08/24 04:46:25;;;;;;;10.20;7.03;;;;;;;19.84;44.79;93921.91;4975005;28;20109;-75
2021/08/24 04:48:50;;;;;;;11.77;6.90;;;;;;;19.90;45.08;93920.41;4973313;28;20158;-74
2021/08/24 04:51:16;;;;;;;10.02;6.80;;;;;;;19.94;44.93;93913.16;4974093;28;20393;-75
2021/08/24 04:53:41;;;;;;;20.75;6.65;;;;;;;20.06;44.88;93912.88;4972601;28;20038;-74
2021/08/24 04:56:07;;;;;;;8.93;7.47;;;;;;;20.03;45.40;93913.63;4975074;28;20025;-74
2021/08/24 04:58:32;;;;;;;10.73;7.32;;;;;;;20.03;45.41;93903.63;4976712;28;20046;-74
2021/08/24 05:00:57;;;;;;;9.45;7.57;;;;;;;20.13;45.36;93915.66;4974426;28;20061;-75
2021/08/24 05:03:23;;;;;;;12.63;8.77;;;;;;;20.16;45.08;93896.00;4970575;28;20374;-74
2021/08/24 05:05:48;;;;;;;18.58;7.95;;;;;;;20.23;44.92;93898.81;4971347;28;20141;-74
2021/08/24 05:08:14;;;;;;;17.92;8.25;;;;;;;20.33;44.99;93914.34;4973372;28;21202;-75
2021/08/24 05:10:39;;;;;;;11.23;8.38;;;;;;;20.45;44.92;93922.16;4971657;28;20971;-74
2021/08/24 05:13:05;;;;;;;12.00;7.43;;;;;;;20.54;44.67;93919.94;4974298;28;20038;-74
2021/08/24 05:15:32;;;;;;;13.38;8.52;;;;;;;20.67;43.86;93911.53;4974956;28;20125;-75
2021/08/24 05:17:58;;;;;;;12.95;7.63;;;;;;;20.61;43.91;93919.22;4971667;28;20892;-75
2021/08/24 05:20:23;;;;;;;12.98;8.52;;;;;;;20.67;44.11;93923.13;4974400;28;20126;-75
2021/08/24 05:22:49;;;;;;;11.05;8.20;;;;;;;20.75;44.24;93926.66;4973259;28;20065;-76
2021/08/24 05:25:18;;;;;;;18.70;8.93;;;;;;;20.64;44.04;93913.06;4970322;28;20567;-75
2021/08/24 05:27:44;;;;;;;12.60;8.70;;;;;;;20.79;44.35;93927.47;4970108;28;20512;-76
2021/08/24 05:30:12;;;;;;;10.68;8.20;;;;;;;20.97;43.17;93920.31;4971641;28;20073;-75
2021/08/24 05:32:37;;;;;;;10.77;7.85;;;;;;;20.92;43.81;93926.06;4969303;28;20053;-75
2021/08/24 05:35:03;;;;;;;19.15;8.82;;;;;;;21.01;42.92;93915.69;4972023;28;20588;-74
2021/08/24 05:37:29;;;;;;;14.18;8.38;;;;;;;21.07;43.17;93916.13;4972752;28;20056;-74
2021/08/24 05:39:54;;;;;;;12.07;8.48;;;;;;;21.05;42.59;93927.31;4972418;28;20493;-75
2021/08/24 05:42:20;;;;;;;12.35;9.27;;;;;;;20.96;42.71;93918.75;4970093;28;20034;-74
2021/08/24 05:44:45;;;;;;;18.52;8.52;;;;;;;21.04;42.91;93914.94;4972872;28;20089;-75
2021/08/24 05:47:11;;;;;;;14.13;8.80;;;;;;;21.05;43.44;93930.00;4969151;28;20549;-75
2021/08/24 05:49:37;;;;;;;16.27;9.10;;;;;;;20.95;43.23;93917.19;4971411;28;20038;-75
2021/08/24 05:52:03;;;;;;;11.15;7.63;;;;;;;21.09;43.39;93933.50;4972149;28;20961;-75
2021/08/24 05:54:29;;;;;;;9.27;8.02;;;;;;;21.09;43.72;93928.09;4968896;28;20394;-75
2021/08/24 05:56:54;;;;;;;17.00;8.45;;;;;;;21.20;43.22;93933.56;4974041;28;20421;-75
2021/08/24 05:59:20;;;;;;;10.88;7.47;;;;;;;21.35;42.65;93922.47;4964921;28;20567;-75
2021/08/24 06:01:46;;;;;;;11.23;7.22;;;;;;;21.36;42.62;93937.53;4969144;28;20440;-75
2021/08/24 06:04:11;;;;;;;13.13;8.52;;;;;;;21.44;42.16;93925.59;4971886;28;20096;-75
2021/08/24 06:06:39;;;;;;;10.75;7.63;;;;;;;21.40;42.21;93924.03;4967402;28;20049;-74
2021/08/24 06:09:07;;;;;;;11.90;7.40;;;;;;;21.54;42.51;93926.03;4973867;28;20046;-75
2021/08/24 06:11:35;;;;;;;9.57;7.63;;;;;;;21.53;42.03;93922.53;4974120;28;20046;-74
2021/08/24 06:14:04;;;;;;;11.75;7.70;;;;;;;21.46;42.58;93915.16;4971432;28;20072;-75
2021/08/24 06:16:30;;;;;;;13.52;7.70;;;;;;;21.59;41.47;93926.47;4972515;28;20105;-75
2021/08/24 06:18:56;;;;;;;10.43;7.55;;;;;;;21.66;41.72;93907.53;4973356;28;20046;-75
2021/08/24 06:21:22;;;;;;;8.65;7.28;;;;;;;21.58;42.38;93908.69;4975216;28;20065;-75
2021/08/24 06:23:48;;;;;;;11.02;6.93;;;;;;;21.62;41.08;93922.22;4976743;28;20092;-75
2021/08/24 06:26:15;;;;;;;10.05;7.38;;;;;;;21.66;41.28;93921.06;4975594;28;20867;-75
2021/08/24 06:28:41;;;;;;;8.95;6.93;;;;;;;21.75;41.83;93915.34;4975078;28;20686;-75
2021/08/24 06:31:07;;;;;;;14.40;8.73;;;;;;;21.85;41.51;93917.31;4973793;28;20130;-75
2021/08/24 06:33:37;;;;;;;14.15;7.82;;;;;;;21.85;41.84;93917.31;4977076;28;20042;-74
2021/08/24 06:36:04;;;;;;;16.23;8.73;;;;;;;21.95;42.42;93918.50;4969002;28;20129;-75
2021/08/24 06:38:31;;;;;;;13.70;8.52;;;;;;;21.77;42.50;93902.97;4987806;28;20073;-74
2021/08/24 06:40:57;;;;;;;18.15;9.02;;;;;;;21.76;43.08;93916.88;4979627;28;20030;-75
2021/08/24 06:43:22;;;;;;;15.15;8.10;;;;;;;22.05;42.84;93913.09;4977567;28;20747;-75
2021/08/24 06:45:48;;;;;;;16.80;9.98;;;;;;;21.99;42.27;93898.41;4979215;28;20039;-75
2021/08/24 06:48:13;;;;;;;11.25;7.65;;;;;;;22.42;41.56;93920.16;4974645;28;20674;-75
2021/08/24 06:50:39;;;;;;;16.42;8.10;;;;;;;22.42;41.50;93893.84;4975578;28;20038;-76
2021/08/24 06:53:04;;;;;;;13.70;8.45;;;;;;;22.39;42.18;93901.97;4976098;28;20046;-75
2021/08/24 06:55:33;;;;;;;13.38;8.90;;;;;;;22.55;42.25;93918.63;4975561;28;20530;-74
2021/08/24 06:57:59;;;;;;;18.85;8.20;;;;;;;22.71;42.48;93917.09;4973590;28;20062;-75
2021/08/24 07:00:26;;;;;;;11.80;8.10;;;;;;;22.61;42.28;93922.50;4974348;28;20497;-75
2021/08/24 07:02:53;;;;;;;10.75;8.20;;;;;;;22.58;42.08;93917.88;4976151;28;20046;-75
2021/08/24 07:05:21;;;;;;;14.13;8.20;;;;;;;22.69;42.17;93924.06;4973499;28;20046;-74
2021/08/24 07:07:47;;;;;;;16.45;9.35;;;;;;;22.82;41.71;93908.97;4975118;28;20089;-75
2021/08/24 07:10:14;;;;;;;17.55;8.57;;;;;;;23.15;41.36;93924.84;4976772;28;20046;-75
2021/08/24 07:12:40;;;;;;;13.15;8.23;;;;;;;23.09;40.21;93906.63;4975491;28;20049;-74
2021/08/24 07:15:08;;;;;;;18.73;8.85;;;;;;;23.03;41.48;93900.81;4973484;28;20042;-75
2021/08/24 07:17:34;;;;;;;14.88;8.68;;;;;;;22.85;41.89;93905.47;4974941;28;20495;-75
2021/08/24 07:19:59;;;;;;;14.18;9.02;;;;;;;23.12;41.93;93914.75;4974208;28;20533;-76
2021/08/24 07:22:25;;;;;;;13.10;9.50;;;;;;;23.24;42.03;93912.81;4975160;28;20097;-75
2021/08/24 07:24:50;;;;;;;17.27;8.63;;;;;;;23.41;41.33;93912.00;4976194;28;20058;-75
2021/08/24 07:27:16;;;;;;;12.77;8.80;;;;;;;23.55;40.89;93917.41;4974831;28;20031;-75
2021/08/24 07:29:41;;;;;;;9.40;8.40;;;;;;;23.51;40.66;93905.81;4977000;28;20042;-75
2021/08/24 07:32:08;;;;;;;11.60;8.40;;;;;;;23.58;39.86;93911.19;4972851;28;20049;-75
2021/08/24 07:34:34;;;;;;;13.18;8.60;;;;;;;23.50;40.15;93893.41;4975611;28;20030;-75
2021/08/24 07:36:59;;;;;;;18.13;9.18;;;;;;;23.55;40.58;93914.72;4972106;28;20108;-75
2021/08/24 07:39:25;;;;;;;13.88;8.05;;;;;;;23.58;41.36;93892.19;4974001;28;20053;-75
2021/08/24 07:41:52;;;;;;;13.98;8.55;;;;;;;23.65;40.07;93908.47;4969274;28;20675;-77
2021/08/24 07:44:23;;;;;;;23.55;9.57;;;;;;;23.66;39.90;93907.28;4971154;28;20038;-75
2021/08/24 07:46:49;;;;;;;18.40;8.30;;;;;;;23.58;40.28;93878.63;4971469;28;20033;-76
2021/08/24 07:49:15;;;;;;;11.38;7.53;;;;;;;23.87;39.44;93912.63;4968797;28;20129;-75
2021/08/24 07:51:40;;;;;;;12.27;9.15;;;;;;;23.98;38.89;93897.06;4974256;28;20627;-74
2021/08/24 07:54:05;;;;;;;14.77;7.72;;;;;;;24.08;39.47;93902.84;4973897;28;20038;-75
2021/08/24 07:56:31;;;;;;;12.57;7.90;;;;;;;24.16;39.74;93896.22;4975833;28;20100;-75
2021/08/24 07:58:56;;;;;;;16.08;9.02;;;;;;;24.27;39.49;93905.09;4979552;28;20390;-75
2021/08/24 08:01:22;;;;;;;15.65;8.90;;;;;;;24.29;38.82;93903.53;4970590;28;20045;-75
2021/08/24 08:03:47;;;;;;;22.42;9.02;;;;;;;24.23;39.32;93893.47;4973926;28;20050;-75
2021/08/24 08:06:12;;;;;;;12.05;8.65;;;;;;;24.33;39.53;93898.06;4975177;28;20041;-75
2021/08/24 08:08:38;;;;;;;11.65;7.95;;;;;;;24.36;38.75;93891.81;4975291;28;20061;-77
2021/08/24 08:11:03;;;;;;;12.55;9.05;;;;;;;23.85;38.43;93868.81;4973081;28;20034;-75
2021/08/24 08:13:29;;;;;;;13.82;8.20;;;;;;;23.95;38.38;93889.69;4972143;28;20607;-75
2021/08/24 08:15:55;;;;;;;12.68;8.43;;;;;;;24.30;39.80;93904.28;4968421;28;20046;-75
2021/08/24 08:18:21;;;;;;;11.95;7.53;;;;;;;24.31;37.10;93900.38;4971203;28;20038;-76
2021/08/24 08:20:46;;;;;;;12.77;7.93;;;;;;;24.30;37.43;93896.13;4971096;28;20080;-75
2021/08/24 08:23:15;;;;;;;11.63;7.57;;;;;;;24.43;36.47;93913.53;4972283;28;20770;-75
2021/08/24 08:25:41;;;;;;;13.18;8.20;;;;;;;24.31;36.97;93881.38;4985668;28;20413;-76
2021/08/24 08:28:06;;;;;;;14.95;8.10;;;;;;;24.37;36.73;93898.81;4971489;28;20406;-75
2021/08/24 08:30:34;;;;;;;10.43;7.47;;;;;;;24.33;36.51;93898.06;4973980;28;20081;-76
2021/08/24 08:33:01;;;;;;;15.05;8.40;;;;;;;24.50;37.35;93897.16;4971958;28;20043;-76
2021/08/24 08:35:27;;;;;;;15.70;8.25;;;;;;;24.51;37.71;93882.41;4975242;28;20034;-75
2021/08/24 08:37:52;;;;;;;9.65;7.13;;;;;;;24.62;37.85;93877.66;4971876;28;20045;-76
2021/08/24 08:40:27;;;;;;;12.05;6.95;;;;;;;24.53;37.29;93888.22;4973840;28;20145;-76
2021/08/24 08:43:07;;;;;;;8.80;6.90;;;;;;;24.38;36.96;93870.47;4970358;28;20057;-75
2021/08/24 08:45:42;;;;;;;11.45;7.10;;;;;;;24.48;37.13;93875.03;4975219;28;20079;-75
2021/08/24 08:48:17;;;;;;;9.93;7.80;;;;;;;24.64;36.43;93890.81;4972865;28;20046;-76
2021/08/24 08:50:57;;;;;;;9.55;7.05;;;;;;;24.75;35.42;93884.16;4970643;28;20073;-75
2021/08/24 08:53:43;;;;;;;11.88;7.45;;;;;;;25.03;35.31;93879.66;4971589;28;20398;-76
2021/08/24 08:56:41;;;;;;;17.65;7.00;;;;;;;25.07;34.59;93883.13;4969086;28;20026;-75
2021/08/24 08:59:12;;;;;;;10.65;6.85;;;;;;;25.00;34.28;93875.78;4972071;28;20644;-75
2021/08/24 09:02:16;;;;;;;8.48;6.65;;;;;;;25.11;35.10;93865.59;4974792;28;20030;-75
2021/08/24 09:04:44;;;;;;;10.70;6.15;;;;;;;25.29;34.44;93877.06;4969777;28;20042;-75
2021/08/24 09:07:18;;;;;;;10.82;6.25;;;;;;;25.33;33.48;93882.47;4975543;28;20137;-75
2021/08/24 09:09:44;;;;;;;7.40;5.80;;;;;;;25.39;33.23;93858.31;4970453;28;20536;-76
2021/08/24 09:12:10;;;;;;;9.18;5.32;;;;;;;25.46;32.73;93855.53;4972685;28;20455;-75
2021/08/24 09:14:49;;;;;;;6.20;5.30;;;;;;;25.65;31.42;93871.25;4968660;28;20050;-75
2021/08/24 09:17:35;;;;;;;9.57;5.80;;;;;;;25.77;31.58;93867.97;4968947;28;20113;-75
2021/08/24 09:20:21;;;;;;;10.93;5.47;;;;;;;25.85;30.31;93860.50;4968966;28;20670;-75
2021/08/24 09:22:48;;;;;;;5.88;4.22;;;;;;;25.86;28.58;93862.78;4969002;28;20773;-77
2021/08/24 09:25:17;;;;;;;5.45;4.38;;;;;;;25.85;29.53;93868.66;4987812;28;20043;-76
2021/08/24 09:27:57;;;;;;;9.57;5.82;;;;;;;25.95;30.15;93862.34;4988407;28;20043;-75
2021/08/24 09:30:23;;;;;;;7.38;4.50;;;;;;;25.88;30.15;93840.59;4976599;28;20915;-75
2021/08/24 09:32:49;;;;;;;5.38;4.63;;;;;;;25.85;29.31;93852.31;4976467;28;20057;-75
2021/08/24 09:35:14;;;;;;;6.43;4.72;;;;;;;25.94;29.68;93852.63;4972244;28;20038;-76
2021/08/24 09:37:40;;;;;;;13.60;5.83;;;;;;;25.96;29.20;93852.97;4970935;28;20077;-75
2021/08/24 09:40:10;;;;;;;11.55;5.53;;;;;;;26.03;29.16;93847.44;4972891;28;20272;-76
2021/08/24 09:42:37;;;;;;;8.00;4.75;;;;;;;25.77;29.41;93853.56;4970688;28;20520;-75
2021/08/24 09:45:20;;;;;;;8.45;5.70;;;;;;;25.66;29.66;93848.28;4972195;28;20092;-77
2021/08/24 09:47:57;;;;;;;8.50;5.90;;;;;;;25.83;30.02;93855.44;4974002;28;20920;-76
2021/08/24 09:50:36;;;;;;;8.02;5.68;;;;;;;25.93;30.61;93848.34;4989714;28;20585;-75
2021/08/24 09:53:04;;;;;;;9.52;6.05;;;;;;;26.02;30.22;93848.59;4965697;28;20030;-76
2021/08/24 09:55:35;;;;;;;7.45;5.60;;;;;;;26.11;31.14;93832.50;4969226;28;20117;-76
2021/08/24 09:58:05;;;;;;;7.13;6.03;;;;;;;26.08;30.20;93844.25;4969735;28;20433;-75
2021/08/24 10:00:56;;;;;;;7.50;5.50;;;;;;;26.03;30.48;93837.31;4968531;28;20476;-75
2021/08/24 10:03:38;;;;;;;7.32;5.53;;;;;;;26.04;30.94;93822.50;4987473;28;20038;-77
2021/08/24 10:06:28;;;;;;;7.82;5.60;;;;;;;26.12;30.14;93834.06;4975149;28;20066;-76
2021/08/24 10:09:10;;;;;;;5.50;4.88;;;;;;;26.16;30.37;93832.03;4971731;28;20062;-75
2021/08/24 10:11:36;;;;;;;8.80;6.05;;;;;;;25.98;30.18;93824.13;4970725;28;20074;-75
2021/08/24 10:14:21;;;;;;;9.85;6.38;;;;;;;26.07;29.88;93818.94;4975608;28;20184;-75
2021/08/24 10:16:51;;;;;;;10.80;5.28;;;;;;;26.15;30.11;93819.63;4986531;28;20888;-76
2021/08/24 10:19:30;;;;;;;7.00;6.30;;;;;;;26.16;30.31;93814.91;4974749;28;20836;-75
2021/08/24 10:22:00;;;;;;;10.63;6.13;;;;;;;26.20;30.00;93815.66;4970111;28;20583;-75
2021/08/24 10:24:33;;;;;;;9.00;5.97;;;;;;;26.40;30.61;93811.03;4971115;28;20042;-75
2021/08/24 10:27:03;;;;;;;7.65;5.85;;;;;;;26.23;29.81;93807.41;4973737;28;20049;-75
2021/08/24 10:29:34;;;;;;;7.63;6.45;;;;;;;26.30;29.90;93814.72;4970625;28;20919;-76
2021/08/24 10:32:04;;;;;;;8.70;6.18;;;;;;;26.34;30.56;93810.00;4971341;28;20031;-75
2021/08/24 10:34:35;;;;;;;10.30;6.90;;;;;;;26.42;29.84;93804.00;4969642;28;20034;-75
2021/08/24 10:37:25;;;;;;;8.57;6.15;;;;;;;26.38;29.66;93806.03;4986879;28;20472;-76
2021/08/24 10:39:52;;;;;;;7.00;6.30;;;;;;;26.24;29.77;93805.47;4969341;28;20493;-76
2021/08/24 10:42:29;;;;;;;6.88;5.63;;;;;;;26.28;29.67;93793.31;4972221;28;20050;-75
2021/08/24 10:44:56;;;;;;;7.50;6.72;;;;;;;26.48;29.97;93791.47;4976791;28;20050;-75
2021/08/24 10:47:29;;;;;;;7.50;6.80;;;;;;;26.50;29.49;93778.19;4970279;28;20624;-76
2021/08/24 10:49:58;;;;;;;8.15;6.10;;;;;;;26.55;29.25;93769.53;4967281;28;20599;-75
2021/08/24 10:52:40;;;;;;;9.75;7.00;;;;;;;26.58;28.71;93780.81;4970798;28;20019;-76
2021/08/24 10:55:29;;;;;;;10.90;6.88;;;;;;;26.55;29.13;93780.44;4974406;28;20058;-76
2021/08/24 10:58:09;;;;;;;6.82;6.22;;;;;;;26.83;29.65;93778.41;4958103;28;20528;-75
2021/08/24 11:00:38;;;;;;;6.40;5.90;;;;;;;26.76;28.72;93781.25;4965312;28;20077;-75
2021/08/24 11:03:25;;;;;;;6.38;5.68;;;;;;;26.85;28.34;93763.16;4972470;28;20416;-75
2021/08/24 11:06:16;;;;;;;7.90;6.95;;;;;;;26.79;28.91;93769.53;4970499;28;20096;-75
2021/08/24 11:09:10;;;;;;;8.15;6.13;;;;;;;26.91;29.08;93768.91;4961015;28;20038;-75
2021/08/24 11:11:35;;;;;;;11.85;6.65;;;;;;;26.99;29.32;93764.84;4970463;28;20050;-76
2021/08/24 11:14:07;;;;;;;9.27;6.97;;;;;;;27.08;28.85;93765.09;4971921;28;20038;-75
2021/08/24 11:16:57;;;;;;;10.32;6.35;;;;;;;27.08;28.71;93762.38;4974135;28;20037;-76
2021/08/24 11:19:23;;;;;;;7.60;5.97;;;;;;;27.05;28.13;93763.19;4977336;28;20038;-76
2021/08/24 11:22:01;;;;;;;7.78;6.07;;;;;;;27.11;28.26;93752.56;4974065;28;20046;-75
2021/08/24 11:24:45;;;;;;;7.30;6.45;;;;;;;27.14;27.90;93760.69;4974314;28;20580;-75
2021/08/24 11:27:40;;;;;;;7.40;5.82;;;;;;;27.24;28.03;93765.16;4974348;28;20169;-76
2021/08/24 11:30:29;;;;;;;10.63;6.78;;;;;;;27.47;27.67;93766.28;4975478;28;20066;-75
2021/08/24 11:33:04;;;;;;;11.20;6.45;;;;;;;27.51;27.99;93754.09;4960257;28;20042;-75
2021/08/24 11:35:43;;;;;;;13.48;6.00;;;;;;;27.50;27.77;93766.19;4975868;28;20989;-75
2021/08/24 11:38:14;;;;;;;7.53;6.45;;;;;;;27.36;27.31;93755.56;4973222;28;20074;-75
2021/08/24 11:40:58;;;;;;;8.70;6.50;;;;;;;27.53;27.03;93754.41;4977648;28;20030;-75
2021/08/24 11:43:49;;;;;;;6.55;5.95;;;;;;;27.63;27.72;93752.69;4974842;28;20089;-77
2021/08/24 11:46:26;;;;;;;8.32;6.00;;;;;;;27.68;27.63;93746.72;4980142;28;20294;-75
2021/08/24 11:49:02;;;;;;;10.18;6.80;;;;;;;27.78;27.64;93749.22;4973100;28;20038;-75